Time;durP1;ratioP1;P1;durP2;ratioP2;P2;SDS_P1;SDS_P2;PMS_P1;PMS_P2;Temp;Humidity;BMP_temperature;BMP_pressure;BME280_temperature;BME280_humidity;BME280_pressure;Samples;Min_cycle;Max_cycle;Signal;HPM_P1;HPM_P2
2022/10/09 00:01:23;;;;;;;7.63;3.63;;;;;;;12.97;67.83;102646.19;6247354;22;20004;-73
2022/10/09 00:03:51;;;;;;;8.52;3.70;;;;;;;12.92;67.80;102642.53;6238695;22;20007;-73
2022/10/09 00:06:20;;;;;;;10.13;4.10;;;;;;;12.88;67.75;102648.50;6246679;22;20096;-73
2022/10/09 00:08:46;;;;;;;8.35;3.50;;;;;;;12.86;67.84;102647.56;6239366;22;20421;-72
2022/10/09 00:11:17;;;;;;;9.05;3.53;;;;;;;12.86;68.35;102644.97;6245644;22;20022;-73
2022/10/09 00:13:43;;;;;;;8.85;3.45;;;;;;;12.89;68.83;102646.75;6239036;22;20443;-73
2022/10/09 00:16:10;;;;;;;9.05;3.78;;;;;;;12.93;68.69;102646.91;6245204;22;20083;-72
2022/10/09 00:18:36;;;;;;;10.95;3.97;;;;;;;12.93;68.77;102644.28;6246332;22;20939;-73
2022/10/09 00:21:02;;;;;;;8.10;3.90;;;;;;;12.98;68.45;102641.84;6242814;22;20106;-72
2022/10/09 00:23:28;;;;;;;8.77;3.60;;;;;;;12.97;68.21;102637.44;6251843;22;20475;-72
2022/10/09 00:25:56;;;;;;;10.13;3.92;;;;;;;12.94;68.51;102648.69;6241285;22;20065;-72
2022/10/09 00:28:23;;;;;;;10.00;3.88;;;;;;;12.97;68.51;102637.44;6248760;22;20545;-73
2022/10/09 00:30:48;;;;;;;7.22;3.58;;;;;;;13.00;68.87;102637.53;6248828;22;20126;-72
2022/10/09 00:33:14;;;;;;;9.13;3.70;;;;;;;13.01;68.74;102632.34;6242993;22;20011;-73
2022/10/09 00:35:40;;;;;;;10.93;3.65;;;;;;;12.97;69.11;102635.72;6219409;22;20090;-73
2022/10/09 00:38:06;;;;;;;10.32;3.67;;;;;;;12.99;68.57;102635.78;6244493;22;20787;-72
2022/10/09 00:40:34;;;;;;;9.43;3.40;;;;;;;12.98;68.41;102632.25;6248590;22;20011;-73
2022/10/09 00:42:59;;;;;;;9.80;3.30;;;;;;;12.96;68.99;102633.03;6252353;22;20031;-73
2022/10/09 00:45:25;;;;;;;12.32;3.45;;;;;;;12.92;68.40;102632.06;6244027;22;20065;-73
2022/10/09 00:47:59;;;;;;;10.05;3.55;;;;;;;12.90;68.54;102633.75;6246275;22;20012;-73
2022/10/09 00:50:38;;;;;;;8.15;3.38;;;;;;;12.88;68.38;102631.91;6243966;22;20020;-73
2022/10/09 00:53:04;;;;;;;11.60;3.53;;;;;;;12.86;68.49;102630.97;6249659;22;20004;-72
2022/10/09 00:55:33;;;;;;;10.60;3.58;;;;;;;12.86;68.48;102620.50;6249181;22;20008;-71
2022/10/09 00:57:59;;;;;;;8.98;3.65;;;;;;;12.82;68.86;102624.75;6245698;22;20395;-74
2022/10/09 01:00:25;;;;;;;8.90;3.60;;;;;;;12.80;69.02;102626.44;6249252;22;20008;-72
2022/10/09 01:02:51;;;;;;;12.93;4.07;;;;;;;12.79;69.29;102636.84;6245582;22;20034;-73
2022/10/09 01:05:18;;;;;;;8.70;3.67;;;;;;;12.80;69.26;102626.44;6249728;22;20403;-73
2022/10/09 01:07:48;;;;;;;7.47;3.63;;;;;;;12.82;69.45;102631.69;6212075;22;20295;-73
2022/10/09 01:10:26;;;;;;;11.00;3.55;;;;;;;12.83;69.39;102630.88;6249349;22;20012;-73
2022/10/09 01:12:55;;;;;;;11.23;4.10;;;;;;;12.82;69.40;102626.47;6221680;22;20279;-73
2022/10/09 01:15:27;;;;;;;11.35;3.60;;;;;;;12.85;69.31;102619.63;6242740;22;20324;-72
2022/10/09 01:18:05;;;;;;;9.95;3.88;;;;;;;12.87;69.50;102627.50;6248223;22;20004;-72
2022/10/09 01:20:42;;;;;;;10.30;3.92;;;;;;;12.91;69.21;102624.16;6242622;22;20012;-73
2022/10/09 01:23:25;;;;;;;8.90;3.63;;;;;;;12.89;69.16;102624.09;6251286;22;20864;-72
2022/10/09 01:26:05;;;;;;;8.88;3.80;;;;;;;12.90;69.09;102617.13;6242507;22;20008;-72
2022/10/09 01:28:33;;;;;;;10.02;4.15;;;;;;;12.92;69.05;102615.47;6250636;22;20384;-72
2022/10/09 01:31:01;;;;;;;9.80;4.28;;;;;;;12.91;68.36;102609.34;6244989;22;19996;-73
2022/10/09 01:33:29;;;;;;;11.23;4.20;;;;;;;12.86;68.90;102605.69;6245229;22;20504;-73
2022/10/09 01:35:55;;;;;;;10.73;4.13;;;;;;;12.83;69.09;102604.69;6247438;22;20006;-72
2022/10/09 01:38:23;;;;;;;12.55;4.22;;;;;;;12.77;69.12;102605.38;6216441;22;20347;-71
2022/10/09 01:40:51;;;;;;;12.30;4.05;;;;;;;12.78;69.52;102598.44;6245983;22;20066;-73
2022/10/09 01:43:16;;;;;;;9.98;4.20;;;;;;;12.80;69.51;102599.38;6248709;22;20004;-73
2022/10/09 01:45:43;;;;;;;9.38;3.80;;;;;;;12.79;69.40;102608.06;6243595;22;20447;-73
2022/10/09 01:48:15;;;;;;;9.63;3.65;;;;;;;12.79;69.55;102597.59;6247358;22;20078;-71
2022/10/09 01:50:44;;;;;;;10.60;3.80;;;;;;;12.81;69.18;102593.28;6244039;22;20095;-72
2022/10/09 01:53:16;;;;;;;11.65;3.90;;;;;;;12.81;69.18;102586.31;6249648;22;20122;-73
2022/10/09 01:56:05;;;;;;;12.15;3.80;;;;;;;12.80;69.26;102584.56;6214471;22;20007;-73
2022/10/09 01:58:47;;;;;;;10.52;3.60;;;;;;;12.79;69.19;102589.75;6218525;22;20018;-73
2022/10/09 02:01:17;;;;;;;9.55;3.65;;;;;;;12.76;69.08;102585.28;6247086;22;20042;-72
2022/10/09 02:03:47;;;;;;;8.68;3.55;;;;;;;12.75;69.29;102577.38;6238977;22;20126;-72
2022/10/09 02:06:14;;;;;;;11.77;3.67;;;;;;;12.71;69.22;102583.38;6246333;22;20003;-72
2022/10/09 02:08:42;;;;;;;9.43;3.75;;;;;;;12.69;69.49;102574.56;6246802;22;20515;-72
2022/10/09 02:11:09;;;;;;;9.48;3.80;;;;;;;12.67;69.72;102578.88;6246526;22;20011;-72
2022/10/09 02:13:35;;;;;;;9.20;3.50;;;;;;;12.67;69.29;102573.66;6242458;22;20030;-72
2022/10/09 02:16:10;;;;;;;11.13;3.63;;;;;;;12.67;69.20;102577.16;6249313;22;20086;-72
2022/10/09 02:18:41;;;;;;;11.25;3.92;;;;;;;12.63;69.59;102577.00;6248536;22;20083;-72
2022/10/09 02:21:12;;;;;;;10.38;3.65;;;;;;;12.64;69.43;102571.81;6240089;22;20060;-73
2022/10/09 02:23:39;;;;;;;8.60;3.70;;;;;;;12.64;69.29;102565.69;6244091;22;20457;-71
2022/10/09 02:26:06;;;;;;;9.90;3.72;;;;;;;12.63;69.25;102569.13;6240392;22;20490;-72
2022/10/09 02:28:32;;;;;;;9.48;3.67;;;;;;;12.54;69.78;102565.41;6248481;22;20000;-71
2022/10/09 02:31:11;;;;;;;11.73;3.78;;;;;;;12.59;69.77;102561.22;6245709;22;20011;-74
2022/10/09 02:33:36;;;;;;;7.65;3.72;;;;;;;12.61;69.68;102558.66;6240833;22;20281;-73
2022/10/09 02:36:02;;;;;;;8.57;3.70;;;;;;;12.63;69.58;102556.06;6247111;22;20102;-72
2022/10/09 02:38:28;;;;;;;10.35;3.50;;;;;;;12.60;69.53;102564.72;6245788;22;20012;-72
2022/10/09 02:40:58;;;;;;;12.15;3.92;;;;;;;12.62;69.51;102563.06;6244332;22;20008;-72
2022/10/09 02:43:23;;;;;;;12.13;3.88;;;;;;;12.55;69.79;102555.84;6250306;22;20000;-72
2022/10/09 02:45:49;;;;;;;11.77;3.88;;;;;;;12.59;69.92;102557.69;6239052;22;20065;-72
2022/10/09 02:48:14;;;;;;;11.20;3.80;;;;;;;12.59;69.43;102555.97;6246327;22;20011;-72
2022/10/09 02:50:40;;;;;;;8.45;3.13;;;;;;;12.56;69.37;102547.16;6240785;22;20052;-73
2022/10/09 02:53:05;;;;;;;10.88;3.53;;;;;;;12.51;69.43;102552.22;6249144;22;20039;-73
2022/10/09 02:55:30;;;;;;;10.23;3.70;;;;;;;12.51;69.63;102549.59;6245836;22;20079;-72
2022/10/09 02:57:56;;;;;;;9.15;3.40;;;;;;;12.46;69.39;102548.56;6240598;22;20084;-72
2022/10/09 03:00:21;;;;;;;11.45;3.83;;;;;;;12.43;69.64;102539.75;6243574;22;20170;-71
2022/10/09 03:02:47;;;;;;;9.98;3.55;;;;;;;12.39;69.14;102540.47;6242343;22;20078;-73
2022/10/09 03:05:12;;;;;;;9.77;3.20;;;;;;;12.35;69.40;102544.72;6247279;22;20268;-72
2022/10/09 03:07:37;;;;;;;9.95;3.58;;;;;;;12.33;69.35;102537.66;6241714;22;20454;-73
2022/10/09 03:10:03;;;;;;;9.55;3.60;;;;;;;12.30;69.52;102534.94;6245630;22;20007;-72
2022/10/09 03:12:28;;;;;;;13.70;3.95;;;;;;;12.28;69.62;102545.34;6243357;22;20338;-72
2022/10/09 03:14:54;;;;;;;6.45;3.40;;;;;;;12.28;69.69;102539.22;6243050;22;20032;-73
2022/10/09 03:17:19;;;;;;;11.05;3.63;;;;;;;12.27;69.61;102540.97;6247435;22;20433;-73
2022/10/09 03:19:45;;;;;;;9.52;3.42;;;;;;;12.27;69.65;102540.97;6234479;22;20015;-72
2022/10/09 03:22:10;;;;;;;8.98;3.38;;;;;;;12.25;69.39;102532.19;6244886;22;20007;-72
2022/10/09 03:24:35;;;;;;;12.90;3.70;;;;;;;12.25;69.49;102540.03;6245856;22;20122;-73
2022/10/09 03:27:00;;;;;;;9.25;3.60;;;;;;;12.25;69.74;102540.03;6240145;22;20460;-72
2022/10/09 03:29:26;;;;;;;10.20;3.85;;;;;;;12.26;69.82;102546.16;6247418;22;20004;-72
2022/10/09 03:31:51;;;;;;;11.45;4.20;;;;;;;12.24;70.04;102537.38;6235364;22;20530;-73
2022/10/09 03:34:16;;;;;;;11.27;3.83;;;;;;;12.26;69.71;102540.94;6247344;22;20431;-73
2022/10/09 03:36:42;;;;;;;7.35;3.63;;;;;;;12.25;69.66;102528.69;6246993;22;20072;-73
2022/10/09 03:39:07;;;;;;;10.88;3.92;;;;;;;12.24;69.79;102535.66;6243506;22;20019;-73
2022/10/09 03:41:33;;;;;;;9.23;4.00;;;;;;;12.26;69.73;102540.94;6244557;22;20107;-72
2022/10/09 03:43:58;;;;;;;13.98;4.30;;;;;;;12.22;69.68;102529.47;6243230;22;20334;-72
2022/10/09 03:46:23;;;;;;;10.98;4.35;;;;;;;12.20;69.72;102533.75;6247530;22;20072;-72
2022/10/09 03:48:49;;;;;;;12.02;4.45;;;;;;;12.18;69.84;102533.72;6248413;22;20044;-72
2022/10/09 03:51:14;;;;;;;12.35;4.25;;;;;;;12.13;70.81;102534.41;6240773;22;20007;-73
2022/10/09 03:53:39;;;;;;;13.02;4.50;;;;;;;12.17;70.46;102534.56;6247720;22;20027;-73
2022/10/09 03:56:05;;;;;;;9.25;4.15;;;;;;;12.18;70.07;102530.22;6245044;22;20209;-72
2022/10/09 03:58:30;;;;;;;10.20;4.30;;;;;;;12.18;69.87;102528.50;6248630;22;20427;-73
2022/10/09 04:00:56;;;;;;;12.43;4.35;;;;;;;12.20;69.67;102528.50;6247611;22;20016;-73
2022/10/09 04:03:21;;;;;;;9.90;4.15;;;;;;;12.22;69.59;102536.41;6245257;22;20007;-73
2022/10/09 04:05:47;;;;;;;9.75;4.18;;;;;;;12.22;69.54;102534.69;6221107;22;20058;-73
2022/10/09 04:08:12;;;;;;;12.52;4.20;;;;;;;12.18;69.65;102540.66;6244304;22;20404;-72
2022/10/09 04:10:37;;;;;;;9.98;3.72;;;;;;;12.14;70.05;102537.03;6246542;22;20007;-71
2022/10/09 04:13:03;;;;;;;9.90;4.28;;;;;;;12.11;69.64;102534.34;6248330;22;20011;-72
2022/10/09 04:15:28;;;;;;;9.55;4.22;;;;;;;12.07;70.09;102536.81;6241979;22;20012;-72
2022/10/09 04:17:54;;;;;;;10.60;4.75;;;;;;;12.02;70.33;102534.03;6245594;22;20007;-72
2022/10/09 04:20:20;;;;;;;13.43;4.43;;;;;;;12.03;70.13;102543.66;6243967;22;20035;-73
2022/10/09 04:22:45;;;;;;;12.30;4.35;;;;;;;12.04;70.05;102537.59;6251299;22;20007;-73
2022/10/09 04:25:11;;;;;;;13.38;4.47;;;;;;;12.04;69.70;102532.34;6250112;22;20664;-73
2022/10/09 04:27:36;;;;;;;12.45;4.63;;;;;;;11.99;70.26;102531.31;6243462;22;20418;-72
2022/10/09 04:30:03;;;;;;;10.65;4.18;;;;;;;12.00;70.03;102527.88;6247208;22;20011;-73
2022/10/09 04:32:28;;;;;;;10.70;4.20;;;;;;;12.03;70.27;102529.69;6240357;22;20047;-73
2022/10/09 04:34:54;;;;;;;12.15;4.40;;;;;;;11.98;70.00;102523.41;6220770;22;20022;-73
2022/10/09 04:37:19;;;;;;;12.65;4.65;;;;;;;11.89;70.50;102518.78;6249212;22;20513;-72
2022/10/09 04:39:45;;;;;;;14.35;5.32;;;;;;;11.88;70.56;102517.00;6239106;22;20008;-72
2022/10/09 04:42:10;;;;;;;14.38;4.70;;;;;;;11.89;70.29;102521.41;6221882;22;20359;-73
2022/10/09 04:44:35;;;;;;;15.52;4.65;;;;;;;11.88;70.32;102519.63;6241178;22;20012;-73
2022/10/09 04:47:00;;;;;;;9.38;4.40;;;;;;;11.88;70.65;102510.88;6247088;22;20034;-72
2022/10/09 04:49:26;;;;;;;10.93;4.45;;;;;;;11.85;70.41;102506.44;6248340;22;20366;-73
2022/10/09 04:51:51;;;;;;;9.05;4.13;;;;;;;11.84;70.25;102517.72;6242358;22;20462;-73
2022/10/09 04:54:17;;;;;;;8.18;4.05;;;;;;;11.81;70.21;102515.00;6252297;22;20435;-72
2022/10/09 04:56:42;;;;;;;9.75;3.83;;;;;;;11.81;70.22;102516.72;6245942;22;20090;-73
2022/10/09 04:59:07;;;;;;;10.45;4.55;;;;;;;11.81;69.97;102515.00;6247870;22;20015;-72
2022/10/09 05:01:33;;;;;;;11.15;4.40;;;;;;;11.79;70.17;102512.34;6241155;22;20020;-73
2022/10/09 05:03:58;;;;;;;12.15;4.40;;;;;;;11.79;69.92;102509.72;6247978;22;20377;-72
2022/10/09 05:06:24;;;;;;;12.15;4.10;;;;;;;11.74;70.03;102511.28;6247599;22;20015;-73
2022/10/09 05:08:50;;;;;;;10.18;4.00;;;;;;;11.74;70.12;102511.28;6245046;22;20012;-72
2022/10/09 05:11:18;;;;;;;12.45;4.18;;;;;;;11.77;70.17;102515.75;6247414;22;20004;-72
2022/10/09 05:13:47;;;;;;;8.60;4.20;;;;;;;11.78;70.03;102509.66;6240229;22;20085;-73
2022/10/09 05:16:19;;;;;;;11.80;4.40;;;;;;;11.73;70.28;102519.97;6250036;22;20077;-72
2022/10/09 05:18:47;;;;;;;13.70;4.88;;;;;;;11.66;70.76;102512.72;6220423;22;20121;-73
2022/10/09 05:21:13;;;;;;;10.93;4.88;;;;;;;11.72;70.46;102517.25;6244359;22;20054;-73
2022/10/09 05:23:39;;;;;;;12.23;4.57;;;;;;;11.75;70.24;102515.69;6244995;22;20007;-73
2022/10/09 05:26:11;;;;;;;14.55;4.72;;;;;;;11.72;70.50;102515.53;6246698;22;20251;-72
2022/10/09 05:28:36;;;;;;;13.38;4.70;;;;;;;11.72;70.08;102512.94;6248145;22;20262;-72
2022/10/09 05:31:06;;;;;;;12.02;4.35;;;;;;;11.71;70.09;102508.53;6247136;22;20007;-73
2022/10/09 05:33:33;;;;;;;14.32;4.68;;;;;;;11.70;69.86;102503.28;6243727;22;20007;-73
2022/10/09 05:36:00;;;;;;;10.05;4.40;;;;;;;11.69;70.05;102507.59;6249444;22;20328;-72
2022/10/09 05:38:26;;;;;;;11.23;4.82;;;;;;;11.63;70.52;102512.63;6242590;22;20702;-72
2022/10/09 05:40:54;;;;;;;12.80;5.15;;;;;;;11.62;70.88;102504.72;6248570;22;20022;-72
2022/10/09 05:43:22;;;;;;;11.77;4.75;;;;;;;11.65;70.77;102510.03;6250303;22;20035;-73
2022/10/09 05:45:48;;;;;;;13.85;5.00;;;;;;;11.67;70.41;102506.66;6244379;22;20015;-73
2022/10/09 05:48:13;;;;;;;11.60;4.90;;;;;;;11.70;70.47;102503.28;6251067;22;20010;-73
2022/10/09 05:50:39;;;;;;;9.40;4.80;;;;;;;11.73;70.21;102517.34;6241799;22;20525;-71
2022/10/09 05:53:04;;;;;;;12.90;4.85;;;;;;;11.69;70.26;102507.59;6252163;22;19999;-73
2022/10/09 05:55:30;;;;;;;14.60;5.47;;;;;;;11.66;70.33;102504.88;6249683;22;20034;-72
2022/10/09 05:57:55;;;;;;;12.77;5.20;;;;;;;11.68;70.41;102507.53;6241774;22;20060;-73
2022/10/09 06:00:20;;;;;;;11.07;5.10;;;;;;;11.68;70.15;102512.78;6247222;22;20035;-72
2022/10/09 06:02:46;;;;;;;15.45;5.97;;;;;;;11.61;70.25;102508.16;6241364;22;20023;-72
2022/10/09 06:05:11;;;;;;;10.93;4.80;;;;;;;11.65;70.44;102510.94;6250055;22;20275;-73
2022/10/09 06:07:36;;;;;;;13.73;5.68;;;;;;;11.63;70.54;102510.00;6239990;22;20979;-72
2022/10/09 06:10:04;;;;;;;14.20;5.60;;;;;;;11.64;70.41;102508.28;6248238;22;20312;-72
2022/10/09 06:12:29;;;;;;;13.05;5.50;;;;;;;11.64;70.41;102509.19;6247543;22;20355;-72
2022/10/09 06:14:54;;;;;;;13.30;5.45;;;;;;;11.67;70.56;102503.16;6242896;22;20407;-72
2022/10/09 06:17:19;;;;;;;14.57;5.82;;;;;;;11.73;70.08;102506.91;6245125;22;20050;-73
2022/10/09 06:19:45;;;;;;;15.07;5.63;;;;;;;11.75;70.47;102504.34;6236578;22;20561;-73
2022/10/09 06:22:10;;;;;;;13.48;5.32;;;;;;;11.77;70.11;102506.16;6249909;22;20073;-74
2022/10/09 06:24:38;;;;;;;15.70;6.40;;;;;;;11.74;70.64;102506.06;6252580;22;20050;-73
2022/10/09 06:27:03;;;;;;;14.85;6.18;;;;;;;11.79;70.74;102504.50;6243195;22;20007;-73
2022/10/09 06:29:29;;;;;;;13.35;6.53;;;;;;;11.82;70.69;102500.22;6244914;22;20015;-72
2022/10/09 06:31:55;;;;;;;16.30;7.18;;;;;;;11.98;70.74;102506.00;6238890;22;20019;-73
2022/10/09 06:34:20;;;;;;;18.00;6.45;;;;;;;12.10;70.70;102506.41;6247666;22;20033;-72
2022/10/09 06:36:46;;;;;;;14.63;6.50;;;;;;;12.10;70.60;102511.66;6249888;22;20430;-74
2022/10/09 06:39:11;;;;;;;17.63;6.90;;;;;;;12.32;70.29;102515.84;6215622;22;20433;-73
2022/10/09 06:41:37;;;;;;;19.45;6.85;;;;;;;12.43;69.58;102519.72;6242575;22;20282;-73
2022/10/09 06:44:05;;;;;;;17.77;6.82;;;;;;;12.42;69.77;102512.69;6244511;22;20011;-71
2022/10/09 06:46:36;;;;;;;16.17;6.50;;;;;;;12.82;69.98;102514.81;6246319;22;20495;-73
2022/10/09 06:49:04;;;;;;;12.82;6.63;;;;;;;13.06;68.64;102509.41;6247648;22;20082;-72
2022/10/09 06:51:31;;;;;;;12.68;6.05;;;;;;;13.48;67.82;102501.06;6242859;22;20004;-73
2022/10/09 06:53:59;;;;;;;12.68;5.63;;;;;;;13.85;66.98;102511.63;6219644;22;20015;-73
2022/10/09 06:56:27;;;;;;;13.55;6.03;;;;;;;13.88;64.81;102508.22;6243049;22;20003;-74
2022/10/09 06:58:52;;;;;;;13.70;5.60;;;;;;;13.84;64.32;102507.28;6246069;22;20039;-72
2022/10/09 07:01:23;;;;;;;15.07;5.70;;;;;;;13.64;64.54;102498.88;6219526;22;20040;-73
2022/10/09 07:03:54;;;;;;;13.38;6.03;;;;;;;13.58;64.67;102506.56;6240744;22;20019;-73
2022/10/09 07:06:23;;;;;;;13.15;5.45;;;;;;;13.48;64.96;102506.28;6222648;22;20032;-72
2022/10/09 07:08:51;;;;;;;16.05;6.20;;;;;;;13.36;64.59;102498.94;6212097;22;20476;-73
2022/10/09 07:11:21;;;;;;;11.82;5.55;;;;;;;13.38;65.35;102500.78;6246059;22;20031;-73
2022/10/09 07:13:49;;;;;;;12.25;5.43;;;;;;;13.07;66.03;102505.06;6237858;22;20050;-73
2022/10/09 07:16:37;;;;;;;12.43;5.45;;;;;;;13.26;65.60;102504.78;6247968;22;20102;-73
2022/10/09 07:19:06;;;;;;;12.07;5.47;;;;;;;13.40;65.36;102511.31;6245769;22;20498;-74
2022/10/09 07:21:35;;;;;;;14.30;5.63;;;;;;;13.35;65.58;102515.53;6214650;22;20065;-73
2022/10/09 07:24:01;;;;;;;12.43;5.32;;;;;;;13.44;64.79;102502.69;6248990;22;20077;-73
2022/10/09 07:26:28;;;;;;;12.55;5.60;;;;;;;13.54;64.72;102504.69;6216951;22;20008;-73
2022/10/09 07:28:54;;;;;;;18.23;6.43;;;;;;;13.51;64.92;102503.75;6243693;22;20443;-73
2022/10/09 07:31:20;;;;;;;16.73;6.30;;;;;;;13.39;64.77;102496.44;6247122;22;20011;-73
2022/10/09 07:33:50;;;;;;;18.38;6.82;;;;;;;13.12;65.50;102507.00;6239351;22;20015;-73
2022/10/09 07:36:15;;;;;;;12.60;6.18;;;;;;;13.66;64.12;102499.78;6248774;22;20003;-72
2022/10/09 07:38:41;;;;;;;13.07;6.57;;;;;;;13.77;64.14;102506.22;6239309;22;20027;-72
2022/10/09 07:41:11;;;;;;;18.42;7.00;;;;;;;13.61;64.63;102500.50;6245736;22;20035;-73
2022/10/09 07:43:39;;;;;;;14.48;7.30;;;;;;;13.81;64.11;102507.16;6238496;22;20024;-72
2022/10/09 07:46:07;;;;;;;15.32;7.10;;;;;;;13.61;64.63;102508.38;6245519;22;20003;-73
2022/10/09 07:48:33;;;;;;;15.75;7.20;;;;;;;13.88;64.00;102502.97;6244383;22;20004;-73
2022/10/09 07:51:10;;;;;;;15.55;7.55;;;;;;;14.04;63.18;102505.13;6215634;22;20114;-73
2022/10/09 07:53:36;;;;;;;14.35;7.43;;;;;;;14.21;62.82;102499.44;6216501;22;20602;-72
2022/10/09 07:56:03;;;;;;;16.17;7.45;;;;;;;14.33;62.45;102500.63;6242740;22;20056;-74
2022/10/09 07:58:29;;;;;;;16.25;7.40;;;;;;;14.37;62.46;102506.00;6245642;22;20340;-73
2022/10/09 08:00:55;;;;;;;13.15;7.30;;;;;;;14.36;62.42;102503.31;6244252;22;20088;-72
2022/10/09 08:03:20;;;;;;;16.85;7.38;;;;;;;14.46;62.83;102510.56;6240563;22;20106;-72
2022/10/09 08:05:53;;;;;;;12.65;6.82;;;;;;;14.54;62.27;102509.00;6244417;22;20007;-73
2022/10/09 08:08:19;;;;;;;15.30;6.18;;;;;;;14.40;62.08;102495.56;6244209;22;20012;-74
2022/10/09 08:10:44;;;;;;;15.20;6.43;;;;;;;14.70;61.10;102498.00;6246566;22;20004;-72
2022/10/09 08:13:10;;;;;;;12.80;5.72;;;;;;;14.77;60.75;102492.03;6246898;22;20736;-73
2022/10/09 08:15:40;;;;;;;15.13;6.43;;;;;;;14.87;60.03;102493.13;6239135;22;20011;-73
2022/10/09 08:18:05;;;;;;;13.65;6.30;;;;;;;14.98;60.33;102495.13;6250576;22;20414;-73
2022/10/09 08:20:31;;;;;;;14.40;6.07;;;;;;;14.86;60.43;102491.38;6239562;22;20011;-72
2022/10/09 08:22:56;;;;;;;12.55;5.47;;;;;;;15.05;59.86;102490.00;6248153;22;20010;-73
2022/10/09 08:25:21;;;;;;;12.77;6.00;;;;;;;14.66;60.91;102497.91;6247967;22;20028;-73
2022/10/09 08:27:46;;;;;;;13.38;5.68;;;;;;;15.21;59.45;102490.34;6238506;22;20007;-73
2022/10/09 08:30:12;;;;;;;13.40;5.65;;;;;;;15.18;60.17;102492.94;6246742;22;20240;-72
2022/10/09 08:32:39;;;;;;;16.85;5.80;;;;;;;14.97;59.96;102490.72;6241555;22;20012;-72
2022/10/09 08:35:04;;;;;;;12.23;5.60;;;;;;;15.32;59.48;102486.19;6248654;22;20004;-72
2022/10/09 08:37:30;;;;;;;14.40;6.38;;;;;;;15.07;60.10;102483.91;6246121;22;20019;-73
2022/10/09 08:39:56;;;;;;;13.38;5.78;;;;;;;15.52;59.44;102486.59;6241827;22;20432;-72
2022/10/09 08:42:58;;;;;;;14.90;5.97;;;;;;;15.14;59.63;102479.69;6250132;22;20320;-72
2022/10/09 08:45:24;;;;;;;13.50;6.60;;;;;;;15.54;59.12;102477.00;6245721;22;20015;-72
2022/10/09 08:48:03;;;;;;;12.10;5.93;;;;;;;15.83;58.33;102478.41;6245682;22;20000;-73
2022/10/09 08:50:36;;;;;;;11.45;5.60;;;;;;;15.83;58.58;102474.91;6237628;22;20012;-72
2022/10/09 08:53:12;;;;;;;15.80;5.95;;;;;;;15.96;58.16;102468.09;6247327;22;20447;-72
2022/10/09 08:55:48;;;;;;;13.32;5.55;;;;;;;15.88;58.10;102478.47;6240163;22;20010;-73
2022/10/09 08:58:16;;;;;;;12.25;5.53;;;;;;;16.05;56.96;102477.00;6248162;22;20007;-72
2022/10/09 09:01:07;;;;;;;11.80;5.20;;;;;;;16.12;56.85;102472.75;6246898;22;20090;-73
2022/10/09 09:03:53;;;;;;;13.48;6.03;;;;;;;16.28;56.93;102466.88;6196959;22;20398;-73
2022/10/09 09:06:37;;;;;;;12.85;5.43;;;;;;;16.41;56.56;102465.28;6246635;22;20047;-71
2022/10/09 09:09:08;;;;;;;12.63;5.53;;;;;;;16.46;56.32;102458.38;6242239;22;20007;-73
2022/10/09 09:11:40;;;;;;;10.35;5.05;;;;;;;16.59;56.22;102450.66;6246226;22;20004;-72
2022/10/09 09:14:28;;;;;;;14.00;4.90;;;;;;;16.36;55.81;102453.81;6223868;22;20082;-72
2022/10/09 09:17:02;;;;;;;11.55;4.53;;;;;;;16.72;55.23;102446.44;6246472;22;20605;-74
2022/10/09 09:19:39;;;;;;;12.63;5.20;;;;;;;16.46;56.10;102447.84;6245508;22;20726;-72
2022/10/09 09:22:11;;;;;;;11.90;5.05;;;;;;;16.37;56.19;102443.31;6248698;22;20099;-73
2022/10/09 09:24:43;;;;;;;11.95;4.65;;;;;;;16.60;56.58;102441.03;6246042;22;20480;-74
2022/10/09 09:27:13;;;;;;;12.40;4.38;;;;;;;16.51;56.08;102428.59;6241663;22;20403;-74
2022/10/09 09:29:44;;;;;;;17.35;4.55;;;;;;;16.80;55.54;102431.63;6243170;22;20498;-73
2022/10/09 09:32:18;;;;;;;10.70;3.80;;;;;;;16.82;54.66;102435.19;6227352;22;20012;-73
2022/10/09 09:34:44;;;;;;;;;;;;;;;16.81;54.90;102427.25;6249605;22;20018;-73
2022/10/09 09:37:10;;;;;;;9.38;3.65;;;;;;;17.10;53.91;102427.59;6206860;22;19911;-72
2022/10/09 09:39:37;;;;;;;11.73;3.95;;;;;;;17.03;54.40;102426.63;6237320;22;20012;-74
2022/10/09 09:42:08;;;;;;;10.85;3.60;;;;;;;17.01;54.22;102421.38;6245003;22;20023;-74
2022/10/09 09:44:37;;;;;;;8.10;3.30;;;;;;;16.89;53.20;102425.63;6232061;22;20087;-75
2022/10/09 09:47:02;;;;;;;8.90;3.47;;;;;;;16.77;52.04;102418.41;6241292;22;20419;-72
2022/10/09 09:49:28;;;;;;;7.05;3.30;;;;;;;17.09;51.62;102416.16;6243902;22;20004;-73
2022/10/09 09:51:57;;;;;;;10.95;3.10;;;;;;;16.93;51.82;102408.97;6212772;22;20513;-74
2022/10/09 09:54:25;;;;;;;6.90;2.85;;;;;;;17.08;50.99;102408.28;6217436;22;20466;-73
2022/10/09 09:56:55;;;;;;;11.23;3.22;;;;;;;17.16;50.67;102402.19;6243690;22;20343;-72
2022/10/09 09:59:34;;;;;;;8.98;3.10;;;;;;;17.28;51.64;102404.97;6216740;22;20335;-73
2022/10/09 10:02:01;;;;;;;11.20;3.13;;;;;;;17.29;50.10;102392.66;6242334;22;20584;-72
2022/10/09 10:04:27;;;;;;;7.60;2.75;;;;;;;17.37;49.65;102401.53;6219619;22;20363;-73
2022/10/09 10:06:53;;;;;;;9.07;2.80;;;;;;;17.03;49.77;102393.28;6247436;22;20014;-73
2022/10/09 10:09:19;;;;;;;9.23;3.00;;;;;;;17.00;49.23;102392.38;6237394;22;20016;-72
2022/10/09 10:11:47;;;;;;;13.77;3.20;;;;;;;17.00;49.74;102395.00;6244488;22;20455;-73
2022/10/09 10:14:15;;;;;;;7.63;2.88;;;;;;;17.18;48.97;102389.03;6243769;22;20493;-73
2022/10/09 10:16:41;;;;;;;8.50;2.97;;;;;;;17.24;48.32;102386.47;6245731;22;20034;-72
2022/10/09 10:19:20;;;;;;;7.60;2.88;;;;;;;17.21;48.35;102376.75;6242410;22;20012;-73
2022/10/09 10:21:59;;;;;;;6.68;2.65;;;;;;;17.38;48.69;102374.31;6238895;22;20075;-73
2022/10/09 10:24:30;;;;;;;7.85;2.70;;;;;;;17.50;47.14;102377.06;6246635;22;20403;-73
2022/10/09 10:27:02;;;;;;;6.93;2.33;;;;;;;17.59;47.73;102376.25;6239682;22;20494;-73
2022/10/09 10:29:39;;;;;;;11.05;2.85;;;;;;;17.32;46.61;102371.63;6244290;22;20163;-72
2022/10/09 10:32:11;;;;;;;7.00;2.45;;;;;;;17.81;46.32;102368.53;6238138;22;20339;-72
2022/10/09 10:34:47;;;;;;;6.32;2.28;;;;;;;17.67;46.06;102364.94;6243662;22;20004;-74
2022/10/09 10:37:12;;;;;;;6.72;2.40;;;;;;;17.65;46.40;102366.66;6245312;22;20459;-73
2022/10/09 10:39:50;;;;;;;8.38;2.50;;;;;;;17.54;46.68;102363.03;6238853;22;20046;-72
2022/10/09 10:42:23;;;;;;;7.80;2.60;;;;;;;17.88;46.07;102351.00;6245901;22;20003;-72
2022/10/09 10:45:18;;;;;;;6.55;2.30;;;;;;;17.44;46.52;102351.50;6242930;22;20252;-73
2022/10/09 10:47:51;;;;;;;6.45;2.55;;;;;;;17.87;45.27;102343.09;6243279;22;20417;-72
2022/10/09 10:50:18;;;;;;;5.30;2.38;;;;;;;17.79;45.63;102349.19;6239432;22;20443;-72
2022/10/09 10:52:58;;;;;;;7.32;2.22;;;;;;;17.69;45.02;102330.63;6250740;22;20018;-73
2022/10/09 10:55:34;;;;;;;7.57;2.45;;;;;;;17.99;44.19;102341.38;6246526;22;20413;-73
2022/10/09 10:58:18;;;;;;;7.93;2.45;;;;;;;17.71;44.12;102329.78;6248901;22;20015;-72
2022/10/09 11:01:08;;;;;;;10.80;2.60;;;;;;;18.09;45.07;102318.59;6246268;22;20039;-73
2022/10/09 11:04:06;;;;;;;9.32;2.50;;;;;;;17.89;44.32;102315.81;6238230;22;20026;-73
2022/10/09 11:07:02;;;;;;;5.88;2.10;;;;;;;18.22;43.27;102315.13;6200643;22;20012;-72
2022/10/09 11:09:55;;;;;;;5.05;1.98;;;;;;;18.33;42.24;102313.44;6208405;22;20011;-73
2022/10/09 11:12:34;;;;;;;8.98;2.47;;;;;;;17.97;42.23;102298.28;6220425;22;20443;-73
2022/10/09 11:15:25;;;;;;;6.97;2.20;;;;;;;18.20;42.52;102291.38;6242162;22;20011;-73
2022/10/09 11:18:28;;;;;;;6.43;2.20;;;;;;;18.34;43.16;102293.19;6231039;22;20292;-73
2022/10/09 11:20:56;;;;;;;7.40;2.35;;;;;;;18.60;42.84;102284.50;6244870;22;20335;-73
2022/10/09 11:23:36;;;;;;;6.38;2.08;;;;;;;18.56;41.19;102289.78;6249576;22;20103;-73
2022/10/09 11:26:21;;;;;;;5.20;1.98;;;;;;;18.68;40.39;102281.88;6244038;22;20064;-72
2022/10/09 11:29:22;;;;;;;6.80;2.20;;;;;;;18.78;41.37;102274.88;6247331;22;20241;-73